Gallatin, Missouri
Current Conditions -  °F | °C
As of 4:15 AM on Saturday 29 Nov 2014 (Local Time) from KGPH Reporting Station
Clear Clear  
Wind Chill: 52°   Ceiling: Unl
Heat Index: 52°   Visibility: 10mi
Dew Point: 43°   Wind: 3mph
Humidity: 71%   Direction: 160°SSE
Pressure: 29.68"   Gusts: NA
Location:  39.91°N, 93.96°W
Report Text: KGPH 291015Z AUTO 16003KT 10SM CLR 11/06 A2968 RMK AO2
Loading
Personal Weather Stations






























Interactive Weather Map New forecast layout! Learn more

10-Day Weather Forecast

Advertisements
Track Severe Weather on mobile